Time;durP1;ratioP1;P1;durP2;ratioP2;P2;SDS_P1;SDS_P2;PMS_P1;PMS_P2;Temp;Humidity;BMP_temperature;BMP_pressure;BME280_temperature;BME280_humidity;BME280_pressure;Samples;Min_cycle;Max_cycle;Signal;HPM_P1;HPM_P2
2022/03/02 00:01:43;;;;;;;33.53;18.25;;;9.10;56.70;;;;;;5099019;28;20201;-85
2022/03/02 00:04:08;;;;;;;30.00;16.80;;;9.10;56.50;;;;;;5098581;28;20294;-84
2022/03/02 00:06:34;;;;;;;31.10;19.13;;;9.20;56.30;;;;;;5103024;28;20266;-84
2022/03/02 00:09:03;;;;;;;38.27;18.90;;;8.90;56.40;;;;;;5103984;28;20176;-85
2022/03/02 00:11:29;;;;;;;35.30;18.10;;;9.10;56.60;;;;;;5102147;28;20271;-84
2022/03/02 00:13:55;;;;;;;36.07;19.77;;;9.10;56.30;;;;;;5100315;28;20239;-84
2022/03/02 00:16:22;;;;;;;39.22;18.63;;;9.10;56.40;;;;;;5097822;28;20200;-84
2022/03/02 00:18:49;;;;;;;40.55;19.05;;;9.10;56.30;;;;;;5097137;28;20176;-84
2022/03/02 00:21:15;;;;;;;34.60;18.90;;;9.10;56.40;;;;;;5098025;28;20179;-85
2022/03/02 00:23:41;;;;;;;31.83;18.92;;;9.00;56.40;;;;;;5097277;28;20191;-85
2022/03/02 00:26:07;;;;;;;34.50;17.47;;;9.00;56.40;;;;;;5097107;28;20333;-84
2022/03/02 00:28:33;;;;;;;38.07;21.47;;;9.10;56.50;;;;;;5098817;28;20428;-83
2022/03/02 00:30:59;;;;;;;30.70;18.42;;;9.10;56.50;;;;;;5097692;28;21254;-84
2022/03/02 00:33:24;;;;;;;36.50;20.45;;;9.00;56.40;;;;;;5098416;28;20241;-85
2022/03/02 00:35:50;;;;;;;36.90;19.17;;;9.00;56.40;;;;;;5096772;28;20287;-85
2022/03/02 00:38:16;;;;;;;35.00;18.47;;;9.10;56.60;;;;;;5096939;28;20256;-85
2022/03/02 00:40:43;;;;;;;42.77;20.87;;;9.10;56.40;;;;;;5096574;28;20548;-85
2022/03/02 00:43:10;;;;;;;31.08;17.20;;;9.10;56.40;;;;;;5097173;28;20433;-85
2022/03/02 00:45:36;;;;;;;34.47;16.98;;;9.10;56.30;;;;;;5097710;28;20211;-85
2022/03/02 00:48:03;;;;;;;38.33;19.88;;;8.70;56.50;;;;;;5096007;28;20659;-85
2022/03/02 00:50:30;;;;;;;36.08;18.27;;;8.60;57.00;;;;;;5096492;28;20216;-85
2022/03/02 00:52:56;;;;;;;41.75;18.25;;;8.60;57.10;;;;;;5097461;28;20644;-85
2022/03/02 00:55:22;;;;;;;31.70;17.83;;;8.60;57.30;;;;;;5096323;28;20214;-85
2022/03/02 00:57:48;;;;;;;33.80;19.20;;;8.50;57.10;;;;;;5096229;28;20179;-85
2022/03/02 01:00:15;;;;;;;38.42;19.67;;;8.60;57.00;;;;;;5097535;28;20255;-85
2022/03/02 01:02:42;;;;;;;35.22;18.60;;;8.60;56.90;;;;;;5096850;28;20251;-84
2022/03/02 01:05:10;;;;;;;40.08;19.85;;;8.70;56.90;;;;;;5097491;28;20199;-85
2022/03/02 01:07:36;;;;;;;34.00;18.33;;;8.70;57.00;;;;;;5096899;28;20164;-85
2022/03/02 01:10:04;;;;;;;37.43;17.77;;;8.60;56.70;;;;;;5096272;28;20275;-85
2022/03/02 01:12:30;;;;;;;31.60;18.05;;;8.50;56.90;;;;;;5096771;28;20426;-85
2022/03/02 01:14:56;;;;;;;38.40;18.67;;;8.40;57.10;;;;;;5098128;28;20218;-84
2022/03/02 01:17:22;;;;;;;33.80;17.13;;;8.50;57.20;;;;;;5071608;28;20492;-85
2022/03/02 01:19:49;;;;;;;38.50;17.48;;;8.40;57.00;;;;;;5099024;28;20208;-84
2022/03/02 01:22:16;;;;;;;38.22;16.63;;;8.30;57.20;;;;;;5107495;28;20179;-85
2022/03/02 01:24:42;;;;;;;34.60;18.77;;;8.30;57.50;;;;;;5106011;28;20200;-84
2022/03/02 01:27:08;;;;;;;38.00;20.02;;;8.20;57.50;;;;;;5105930;28;20263;-83
2022/03/02 01:29:34;;;;;;;37.70;19.07;;;8.20;57.60;;;;;;5102582;28;20663;-85
2022/03/02 01:32:03;;;;;;;37.35;18.50;;;8.20;58.30;;;;;;5104651;28;20183;-84
2022/03/02 01:34:29;;;;;;;32.97;17.00;;;8.20;57.40;;;;;;5095531;28;20207;-85
2022/03/02 01:36:54;;;;;;;37.97;18.33;;;8.30;57.50;;;;;;5102541;28;20355;-84
2022/03/02 01:39:20;;;;;;;32.87;17.17;;;8.40;57.30;;;;;;5100912;28;20681;-85
2022/03/02 01:41:46;;;;;;;35.23;16.80;;;8.50;57.10;;;;;;5101606;28;20195;-82
2022/03/02 01:44:12;;;;;;;29.57;17.70;;;8.50;56.70;;;;;;5096208;28;20786;-83
2022/03/02 01:46:38;;;;;;;38.40;17.10;;;8.50;56.60;;;;;;5098019;28;20225;-83
2022/03/02 01:49:04;;;;;;;33.88;18.50;;;8.40;56.50;;;;;;5097089;28;20187;-83
2022/03/02 01:51:30;;;;;;;32.10;17.35;;;8.40;56.60;;;;;;5098292;28;20195;-83
2022/03/02 01:53:56;;;;;;;44.63;17.60;;;8.30;56.70;;;;;;5098222;28;20242;-83
2022/03/02 01:56:24;;;;;;;35.80;18.17;;;8.20;56.90;;;;;;5098943;28;20462;-83
2022/03/02 01:58:50;;;;;;;35.80;19.33;;;8.10;56.90;;;;;;5103020;28;20485;-84
2022/03/02 02:01:16;;;;;;;32.58;17.50;;;8.20;57.00;;;;;;5101535;28;20188;-83
2022/03/02 02:03:43;;;;;;;34.42;16.50;;;8.30;56.70;;;;;;5096693;28;20196;-83
2022/03/02 02:06:09;;;;;;;34.58;17.38;;;8.30;56.60;;;;;;5096480;28;20186;-83
2022/03/02 02:08:35;;;;;;;33.80;17.02;;;8.40;56.30;;;;;;5098488;28;20183;-83
2022/03/02 02:11:02;;;;;;;33.15;17.00;;;8.40;56.10;;;;;;5096057;28;20176;-83
2022/03/02 02:13:34;;;;;;;25.33;16.10;;;8.30;56.30;;;;;;5096709;28;20191;-85
2022/03/02 02:16:01;;;;;;;35.65;17.10;;;8.10;56.70;;;;;;5095222;28;20262;-83
2022/03/02 02:18:27;;;;;;;29.25;18.17;;;8.10;56.80;;;;;;5096441;28;20183;-83
2022/03/02 02:20:53;;;;;;;32.20;17.17;;;8.10;56.80;;;;;;5095580;28;20180;-83
2022/03/02 02:23:19;;;;;;;36.40;18.23;;;7.90;56.90;;;;;;5097172;28;20195;-84
2022/03/02 02:25:45;;;;;;;34.57;16.70;;;7.90;57.20;;;;;;5096054;28;20505;-84
2022/03/02 02:28:13;;;;;;;28.57;17.93;;;7.80;57.60;;;;;;5095588;28;20413;-84
2022/03/02 02:30:40;;;;;;;46.92;17.77;;;7.70;57.50;;;;;;5095854;28;20528;-84
2022/03/02 02:33:06;;;;;;;37.63;18.52;;;7.70;57.70;;;;;;5097224;28;20640;-84
2022/03/02 02:35:33;;;;;;;31.40;17.47;;;7.80;57.60;;;;;;5095020;28;20202;-83
2022/03/02 02:37:59;;;;;;;33.72;17.02;;;7.80;57.40;;;;;;5095213;28;20525;-84
2022/03/02 02:40:27;;;;;;;28.58;15.82;;;7.80;57.30;;;;;;5095378;28;20695;-85
2022/03/02 02:42:53;;;;;;;31.55;15.77;;;7.90;57.30;;;;;;5096787;28;20176;-84
2022/03/02 02:45:22;;;;;;;33.45;17.20;;;7.90;57.20;;;;;;5095342;28;20180;-84
2022/03/02 02:47:49;;;;;;;29.52;17.00;;;7.90;57.10;;;;;;5096196;28;20183;-83
2022/03/02 02:50:21;;;;;;;34.00;17.30;;;7.90;57.00;;;;;;5077995;28;20713;-83
2022/03/02 02:52:48;;;;;;;33.45;16.63;;;7.80;56.80;;;;;;5095672;28;20176;-86
2022/03/02 02:55:16;;;;;;;35.20;16.52;;;7.90;57.00;;;;;;5095913;28;20218;-84
2022/03/02 02:57:42;;;;;;;36.78;15.48;;;7.90;57.00;;;;;;5099528;28;20225;-84
2022/03/02 03:00:12;;;;;;;30.90;15.60;;;7.90;56.80;;;;;;5101463;28;20647;-84
2022/03/02 03:02:39;;;;;;;29.27;15.68;;;7.90;56.80;;;;;;5099961;28;20172;-86
2022/03/02 03:05:11;;;;;;;29.20;16.88;;;8.00;56.60;;;;;;5098070;28;20192;-84
2022/03/02 03:07:39;;;;;;;28.63;16.90;;;8.00;56.60;;;;;;5082264;28;20540;-84
2022/03/02 03:10:06;;;;;;;39.13;16.35;;;7.90;56.60;;;;;;5098910;28;20180;-83
2022/03/02 03:12:34;;;;;;;31.27;15.10;;;7.90;56.50;;;;;;5095976;28;20249;-85
2022/03/02 03:15:00;;;;;;;34.55;15.85;;;7.90;56.30;;;;;;5096586;28;20218;-84
2022/03/02 03:17:25;;;;;;;30.20;15.27;;;7.90;56.10;;;;;;5095520;28;20179;-83
2022/03/02 03:19:51;;;;;;;29.67;15.40;;;8.00;56.10;;;;;;5095853;28;20414;-83
2022/03/02 03:22:17;;;;;;;36.93;15.70;;;8.00;55.90;;;;;;5095611;28;20180;-83
2022/03/02 03:24:43;;;;;;;31.07;17.53;;;7.90;55.80;;;;;;5096003;28;20200;-83
2022/03/02 03:27:08;;;;;;;33.37;17.00;;;7.90;56.00;;;;;;5095402;28;20486;-83
2022/03/02 03:29:34;;;;;;;33.33;15.13;;;7.80;55.80;;;;;;5094546;28;20508;-84
2022/03/02 03:32:00;;;;;;;32.93;16.27;;;7.80;55.90;;;;;;5094642;28;20437;-83
2022/03/02 03:34:26;;;;;;;34.03;16.90;;;7.70;56.00;;;;;;5094454;28;20244;-83
2022/03/02 03:36:52;;;;;;;31.60;17.80;;;7.70;56.30;;;;;;5094095;28;20211;-83
2022/03/02 03:39:18;;;;;;;33.08;15.90;;;7.80;56.40;;;;;;5095474;28;20647;-83
2022/03/02 03:41:45;;;;;;;33.72;17.02;;;7.70;56.10;;;;;;5095046;28;20525;-83
2022/03/02 03:44:11;;;;;;;26.30;14.80;;;7.70;56.40;;;;;;5095933;28;20630;-84
2022/03/02 03:46:37;;;;;;;31.80;16.25;;;7.70;56.40;;;;;;5094827;28;20245;-83
2022/03/02 03:49:03;;;;;;;34.90;15.37;;;7.70;56.10;;;;;;5095316;28;20628;-84
2022/03/02 03:51:28;;;;;;;34.22;16.35;;;7.70;55.70;;;;;;5096834;28;20183;-83
2022/03/02 03:53:54;;;;;;;26.07;14.80;;;7.80;55.60;;;;;;5095870;28;20223;-84
2022/03/02 03:56:20;;;;;;;27.60;14.68;;;7.70;55.50;;;;;;5096196;28;20590;-84
2022/03/02 03:58:47;;;;;;;31.30;15.80;;;7.70;55.40;;;;;;5097655;28;20208;-84
2022/03/02 04:01:14;;;;;;;33.42;15.57;;;7.60;55.50;;;;;;5097128;28;20411;-84
2022/03/02 04:03:39;;;;;;;33.88;15.13;;;7.70;55.70;;;;;;5098333;28;20207;-87
2022/03/02 04:06:05;;;;;;;26.53;14.70;;;7.60;55.70;;;;;;5097075;28;20180;-84
2022/03/02 04:08:31;;;;;;;37.50;18.87;;;7.60;55.70;;;;;;5102439;28;20192;-84
2022/03/02 04:10:57;;;;;;;26.27;15.90;;;7.70;55.80;;;;;;5102857;28;20184;-84
2022/03/02 04:13:22;;;;;;;28.43;15.87;;;7.60;55.70;;;;;;5103756;28;20665;-84
2022/03/02 04:15:48;;;;;;;26.33;14.67;;;7.70;55.70;;;;;;5098033;28;20302;-86
2022/03/02 04:18:14;;;;;;;40.10;15.83;;;7.70;55.60;;;;;;5093704;28;20176;-84
2022/03/02 04:20:40;;;;;;;35.78;15.88;;;7.50;55.70;;;;;;5094587;28;20186;-84
2022/03/02 04:23:08;;;;;;;32.23;15.13;;;7.50;55.80;;;;;;5095885;28;20782;-85
2022/03/02 04:25:33;;;;;;;31.63;14.65;;;7.60;55.70;;;;;;5096421;28;20266;-85
2022/03/02 04:27:59;;;;;;;34.40;14.90;;;7.50;55.70;;;;;;5097404;28;20218;-85
2022/03/02 04:30:27;;;;;;;32.77;15.77;;;7.60;55.80;;;;;;5098701;28;20715;-85
2022/03/02 04:32:53;;;;;;;28.48;14.25;;;7.60;55.70;;;;;;5100845;28;20183;-87
2022/03/02 04:35:19;;;;;;;31.17;14.65;;;7.60;55.60;;;;;;5099208;28;20199;-85
2022/03/02 04:37:44;;;;;;;29.80;15.37;;;7.40;55.70;;;;;;5098408;28;20193;-85
2022/03/02 04:40:12;;;;;;;30.33;15.43;;;7.50;56.00;;;;;;5094880;28;20183;-85
2022/03/02 04:42:38;;;;;;;31.95;16.55;;;7.50;55.80;;;;;;5094971;28;20421;-85
2022/03/02 04:45:05;;;;;;;30.13;15.48;;;7.50;56.00;;;;;;5093405;28;20188;-84
2022/03/02 04:47:31;;;;;;;26.48;15.00;;;7.40;55.70;;;;;;5093158;28;20728;-84
2022/03/02 04:49:57;;;;;;;33.28;15.70;;;7.50;55.70;;;;;;5094993;28;20179;-87
2022/03/02 04:52:23;;;;;;;30.75;14.25;;;7.30;55.50;;;;;;5099004;28;20663;-85
2022/03/02 04:55:07;;;;;;;28.47;13.70;;;7.30;56.00;;;;;;5097407;28;20290;-84
2022/03/02 04:57:42;;;;;;;26.25;14.02;;;7.30;55.90;;;;;;5097721;28;20517;-85
2022/03/02 05:00:32;;;;;;;38.33;15.15;;;7.30;56.10;;;;;;5098041;28;20175;-85
2022/03/02 05:03:04;;;;;;;31.63;15.45;;;7.30;56.30;;;;;;5094443;28;20664;-85
2022/03/02 05:05:33;;;;;;;23.33;14.77;;;7.20;56.20;;;;;;5097264;28;20184;-85
2022/03/02 05:07:59;;;;;;;31.33;16.27;;;7.20;56.10;;;;;;5098539;28;20182;-84
2022/03/02 05:10:26;;;;;;;28.13;14.53;;;7.30;56.30;;;;;;5098863;28;20200;-85
2022/03/02 05:12:52;;;;;;;24.50;13.77;;;7.30;55.70;;;;;;5097380;28;20414;-87
2022/03/02 05:15:19;;;;;;;30.98;16.02;;;7.30;55.70;;;;;;5097963;28;20305;-85
2022/03/02 05:17:46;;;;;;;26.90;13.68;;;7.30;55.60;;;;;;5097881;28;20632;-84
2022/03/02 05:20:13;;;;;;;24.05;14.85;;;7.40;55.40;;;;;;5097134;28;20270;-84
2022/03/02 05:22:39;;;;;;;24.50;12.63;;;7.30;55.30;;;;;;5098033;28;20226;-85
2022/03/02 05:25:07;;;;;;;35.28;14.93;;;7.30;55.60;;;;;;5098152;28;20268;-85
2022/03/02 05:27:33;;;;;;;26.00;13.80;;;7.30;55.50;;;;;;5102861;28;20703;-88
2022/03/02 05:29:59;;;;;;;21.15;12.38;;;7.20;55.30;;;;;;5104167;28;20215;-84
2022/03/02 05:32:25;;;;;;;31.40;17.03;;;7.20;55.30;;;;;;5098709;28;20175;-87
2022/03/02 05:34:50;;;;;;;30.53;14.57;;;7.10;55.50;;;;;;5098072;28;20229;-84
2022/03/02 05:37:16;;;;;;;25.17;15.03;;;7.10;55.60;;;;;;5099663;28;20176;-84
2022/03/02 05:39:43;;;;;;;26.33;13.50;;;7.20;55.50;;;;;;5097851;28;20418;-84
2022/03/02 05:42:08;;;;;;;27.63;14.82;;;7.30;55.50;;;;;;5097933;28;20678;-84
2022/03/02 05:44:35;;;;;;;30.77;14.03;;;7.20;55.40;;;;;;5096960;28;20282;-85
2022/03/02 05:47:01;;;;;;;28.42;14.23;;;7.20;55.20;;;;;;5098720;28;20194;-85
2022/03/02 05:49:26;;;;;;;27.15;14.35;;;7.10;55.30;;;;;;5097423;28;20233;-84
2022/03/02 05:51:52;;;;;;;35.83;14.60;;;7.20;55.30;;;;;;5095288;28;20180;-84
2022/03/02 05:54:18;;;;;;;28.70;13.00;;;7.00;55.10;;;;;;5095085;28;20694;-84
2022/03/02 05:56:44;;;;;;;28.77;14.50;;;7.00;55.30;;;;;;5098971;28;20335;-85
2022/03/02 05:59:12;;;;;;;33.83;16.83;;;7.00;55.50;;;;;;5099414;28;20175;-85
2022/03/02 06:01:39;;;;;;;26.52;14.50;;;7.20;55.50;;;;;;5101784;28;20421;-87
2022/03/02 06:04:05;;;;;;;26.38;14.85;;;7.20;55.30;;;;;;5096612;28;20199;-86
2022/03/02 06:06:33;;;;;;;27.13;15.43;;;7.20;55.20;;;;;;5101096;28;20681;-84
2022/03/02 06:09:00;;;;;;;27.00;15.07;;;6.90;55.40;;;;;;5098881;28;20690;-85
2022/03/02 06:11:27;;;;;;;26.33;14.77;;;6.80;55.50;;;;;;5096322;28;20172;-84
2022/03/02 06:13:54;;;;;;;29.67;14.30;;;6.80;55.70;;;;;;5097685;28;20264;-84
2022/03/02 06:16:28;;;;;;;34.20;14.15;;;6.70;55.90;;;;;;5096605;28;20196;-84
2022/03/02 06:18:54;;;;;;;29.02;15.77;;;6.60;56.00;;;;;;5075748;28;20183;-84
2022/03/02 06:21:26;;;;;;;27.80;15.25;;;6.50;56.20;;;;;;5091505;28;20187;-84
2022/03/02 06:23:52;;;;;;;29.33;13.85;;;6.50;56.40;;;;;;5095759;28;20225;-85
2022/03/02 06:26:18;;;;;;;28.38;13.18;;;6.40;56.40;;;;;;5097116;28;20180;-85
2022/03/02 06:28:45;;;;;;;32.88;14.65;;;6.40;56.70;;;;;;5096476;28;20179;-84
2022/03/02 06:31:13;;;;;;;24.98;14.70;;;6.30;56.90;;;;;;5096584;28;20266;-84
2022/03/02 06:33:39;;;;;;;32.58;14.90;;;6.30;57.00;;;;;;5093966;28;20237;-85
2022/03/02 06:36:05;;;;;;;26.53;14.27;;;6.30;57.00;;;;;;5095705;28;20195;-85
2022/03/02 06:38:31;;;;;;;30.40;15.00;;;6.30;57.00;;;;;;5096507;28;20418;-84
2022/03/02 06:41:24;;;;;;;29.80;13.27;;;6.30;57.00;;;;;;5096528;28;20256;-85
2022/03/02 06:44:18;;;;;;;27.23;15.15;;;6.30;56.90;;;;;;5096208;28;20204;-85
2022/03/02 06:46:55;;;;;;;31.95;14.65;;;6.30;56.90;;;;;;5097198;28;20175;-86
2022/03/02 06:49:29;;;;;;;34.20;15.35;;;6.30;57.00;;;;;;5097143;28;20887;-85
2022/03/02 06:51:59;;;;;;;25.05;13.57;;;6.40;56.90;;;;;;5097924;28;20198;-84
2022/03/02 06:54:30;;;;;;;30.58;14.07;;;6.40;56.80;;;;;;5100597;28;20200;-84
2022/03/02 06:56:59;;;;;;;27.45;13.93;;;6.30;57.20;;;;;;5103164;28;20217;-85
2022/03/02 06:59:32;;;;;;;27.92;15.43;;;6.20;57.10;;;;;;5099461;28;20191;-85
2022/03/02 07:02:02;;;;;;;25.92;14.10;;;6.20;57.20;;;;;;5097815;28;20271;-85
2022/03/02 07:04:38;;;;;;;36.58;15.43;;;6.20;57.00;;;;;;5095871;28;20265;-85
2022/03/02 07:07:04;;;;;;;25.23;14.57;;;6.20;56.90;;;;;;5094796;28;20207;-85
2022/03/02 07:09:32;;;;;;;27.43;12.27;;;6.20;57.00;;;;;;5097382;28;20207;-84
2022/03/02 07:12:02;;;;;;;28.30;15.10;;;6.10;56.70;;;;;;5095135;28;20545;-85
2022/03/02 07:14:33;;;;;;;27.42;13.02;;;6.10;57.30;;;;;;5094051;28;20227;-88
2022/03/02 07:17:01;;;;;;;24.35;13.82;;;6.20;56.80;;;;;;5096343;28;20274;-85
2022/03/02 07:19:27;;;;;;;36.55;14.68;;;6.10;56.70;;;;;;5096190;28;20585;-86
2022/03/02 07:21:55;;;;;;;27.27;12.90;;;6.00;56.40;;;;;;5095192;28;20179;-85
2022/03/02 07:24:22;;;;;;;26.08;14.18;;;5.90;56.40;;;;;;5095338;28;20595;-85
2022/03/02 07:26:54;;;;;;;29.95;14.43;;;6.00;56.60;;;;;;5095571;28;20184;-85
2022/03/02 07:29:22;;;;;;;25.60;14.60;;;6.00;56.60;;;;;;5101588;28;20195;-85
2022/03/02 07:31:51;;;;;;;24.88;14.07;;;5.90;57.30;;;;;;5099991;28;20175;-86
2022/03/02 07:34:17;;;;;;;29.60;14.57;;;5.90;56.70;;;;;;5102592;28;20594;-85
2022/03/02 07:36:43;;;;;;;33.40;15.65;;;5.90;57.60;;;;;;5098387;28;20214;-85
2022/03/02 07:39:10;;;;;;;28.00;13.87;;;6.10;57.10;;;;;;5094152;28;20182;-84
2022/03/02 07:41:36;;;;;;;28.75;14.75;;;6.20;56.60;;;;;;5097836;28;20418;-85
2022/03/02 07:44:04;;;;;;;23.92;13.85;;;6.40;56.40;;;;;;5097134;28;20204;-85
2022/03/02 07:46:30;;;;;;;22.67;13.88;;;6.40;56.90;;;;;;5093512;28;20194;-86
2022/03/02 07:48:56;;;;;;;33.85;14.23;;;6.20;56.60;;;;;;5096792;28;20195;-84
2022/03/02 07:51:23;;;;;;;34.65;16.02;;;6.30;56.40;;;;;;5095597;28;20176;-83
2022/03/02 07:53:51;;;;;;;28.50;15.80;;;6.30;56.10;;;;;;5096674;28;20204;-84
2022/03/02 07:56:18;;;;;;;36.65;16.42;;;6.40;56.80;;;;;;5096556;28;20200;-83
2022/03/02 07:58:45;;;;;;;30.40;14.25;;;6.50;56.50;;;;;;5099006;28;20192;-85
2022/03/02 08:01:18;;;;;;;33.90;15.27;;;6.30;55.80;;;;;;5098106;28;20202;-84
2022/03/02 08:03:45;;;;;;;30.70;15.45;;;6.30;56.60;;;;;;5097153;28;20206;-84
2022/03/02 08:06:11;;;;;;;29.63;14.90;;;6.00;56.70;;;;;;5096986;28;20179;-84
2022/03/02 08:08:38;;;;;;;30.63;14.65;;;6.00;57.30;;;;;;5087656;28;20192;-84
2022/03/02 08:11:07;;;;;;;28.98;15.18;;;;;;;;;;5085555;28;20244;-84
2022/03/02 08:13:36;;;;;;;32.53;14.60;;;;;;;;;;5098949;28;20207;-85
2022/03/02 08:16:02;;;;;;;27.65;13.77;;;6.30;56.80;;;;;;5094602;28;20299;-83
2022/03/02 08:18:38;;;;;;;23.25;13.45;;;6.50;56.50;;;;;;5096052;28;20175;-83
2022/03/02 08:21:04;;;;;;;32.67;16.10;;;6.70;56.20;;;;;;5094497;28;20221;-82
2022/03/02 08:23:38;;;;;;;27.48;13.25;;;6.50;55.80;;;;;;5094510;28;20195;-84
2022/03/02 08:26:04;;;;;;;27.52;14.43;;;6.50;56.00;;;;;;5099392;28;20171;-83
2022/03/02 08:28:32;;;;;;;30.02;14.85;;;;;;;;;;5099550;28;20176;-83
2022/03/02 08:30:59;;;;;;;34.58;17.05;;;6.50;56.10;;;;;;5099593;28;20221;-82
2022/03/02 08:33:27;;;;;;;32.15;15.70;;;6.60;56.70;;;;;;5097904;28;20196;-85
2022/03/02 08:36:03;;;;;;;33.70;17.50;;;6.80;56.40;;;;;;5099214;28;20203;-83
2022/03/02 08:38:29;;;;;;;26.55;15.25;;;6.90;56.20;;;;;;5097987;28;20180;-82
2022/03/02 08:40:55;;;;;;;32.35;16.10;;;7.10;55.90;;;;;;5097877;28;20257;-83
2022/03/02 08:43:21;;;;;;;35.85;14.80;;;7.30;55.60;;;;;;5097848;28;20192;-83
2022/03/02 08:45:49;;;;;;;31.73;15.45;;;7.40;55.20;;;;;;5098680;28;20191;-84
2022/03/02 08:48:19;;;;;;;30.02;15.82;;;7.60;54.50;;;;;;5098796;28;20198;-83
2022/03/02 08:50:45;;;;;;;27.33;16.38;;;7.90;54.10;;;;;;5098510;28;20178;-82
2022/03/02 08:53:17;;;;;;;30.25;15.90;;;8.10;53.30;;;;;;5101443;28;20204;-83
2022/03/02 08:55:44;;;;;;;30.65;17.02;;;8.10;52.70;;;;;;5107120;28;20340;-83
2022/03/02 08:58:11;;;;;;;26.60;15.18;;;8.20;52.70;;;;;;5105591;28;20191;-84
2022/03/02 09:00:37;;;;;;;36.13;16.92;;;8.30;52.50;;;;;;5097366;28;20183;-84
2022/03/02 09:03:04;;;;;;;30.05;15.25;;;8.30;52.20;;;;;;5097859;28;20172;-83
2022/03/02 09:05:32;;;;;;;28.73;16.23;;;8.50;52.10;;;;;;5099150;28;20238;-84
2022/03/02 09:07:58;;;;;;;29.77;15.48;;;8.50;51.70;;;;;;5097364;28;20180;-83
2022/03/02 09:10:24;;;;;;;31.67;16.47;;;8.40;52.10;;;;;;5097194;28;20568;-84
2022/03/02 09:12:55;;;;;;;26.92;14.38;;;8.60;51.70;;;;;;5076754;28;20466;-83
2022/03/02 09:15:21;;;;;;;31.02;16.30;;;8.50;51.70;;;;;;5096384;28;20593;-84
2022/03/02 09:17:46;;;;;;;27.77;14.93;;;8.30;51.90;;;;;;5079372;28;20180;-83
2022/03/02 09:20:13;;;;;;;27.80;15.00;;;8.20;51.80;;;;;;5097717;28;20259;-83
2022/03/02 09:22:41;;;;;;;26.67;14.57;;;8.10;51.80;;;;;;5100978;28;20438;-83
2022/03/02 09:25:08;;;;;;;29.25;14.68;;;8.30;51.70;;;;;;5102873;28;20671;-83
2022/03/02 09:27:34;;;;;;;30.60;14.80;;;8.50;51.50;;;;;;5104737;28;20211;-83
2022/03/02 09:30:05;;;;;;;33.00;15.45;;;8.30;51.40;;;;;;5107563;28;20172;-83
2022/03/02 09:32:33;;;;;;;26.67;15.13;;;8.30;51.60;;;;;;5105426;28;20266;-83
2022/03/02 09:34:59;;;;;;;32.00;15.95;;;8.50;51.40;;;;;;5096234;28;20196;-83
2022/03/02 09:37:30;;;;;;;30.48;15.80;;;8.60;51.10;;;;;;5097366;28;20191;-85
2022/03/02 09:39:59;;;;;;;27.35;15.10;;;8.60;50.80;;;;;;5099792;28;20198;-84
2022/03/02 09:42:26;;;;;;;25.95;14.98;;;8.90;50.70;;;;;;5101242;28;20614;-84
2022/03/02 09:45:07;;;;;;;32.53;16.50;;;8.90;50.10;;;;;;5101895;28;20208;-85
2022/03/02 09:47:46;;;;;;;28.45;14.35;;;8.70;49.90;;;;;;5096950;28;20187;-84
2022/03/02 09:50:17;;;;;;;31.52;14.65;;;8.80;50.20;;;;;;5096956;28;20176;-90
2022/03/02 09:52:48;;;;;;;25.65;13.85;;;8.60;50.40;;;;;;5097564;28;20176;-84
2022/03/02 09:55:16;;;;;;;27.88;14.45;;;8.70;50.20;;;;;;5078675;28;20188;-84
2022/03/02 09:58:01;;;;;;;28.88;14.75;;;8.50;50.00;;;;;;5085678;28;20218;-86
2022/03/02 10:00:29;;;;;;;31.35;15.32;;;8.60;50.60;;;;;;5096504;28;20183;-84
2022/03/02 10:02:57;;;;;;;39.35;16.95;;;8.70;50.70;;;;;;5095693;28;20180;-85
2022/03/02 10:05:33;;;;;;;25.88;15.35;;;8.60;50.20;;;;;;5096209;28;20172;-84
2022/03/02 10:08:02;;;;;;;37.50;15.80;;;8.40;50.40;;;;;;5096235;28;20180;-84
2022/03/02 10:10:33;;;;;;;26.65;14.35;;;8.30;50.80;;;;;;5099432;28;20183;-84
2022/03/02 10:13:01;;;;;;;32.42;15.07;;;8.40;50.70;;;;;;5101432;28;20183;-85
2022/03/02 10:15:29;;;;;;;26.30;14.05;;;8.50;50.30;;;;;;5096741;28;20210;-84
2022/03/02 10:17:58;;;;;;;30.50;14.43;;;8.50;49.90;;;;;;5096394;28;20180;-85
2022/03/02 10:20:35;;;;;;;28.05;15.05;;;8.60;49.20;;;;;;5098444;28;20660;-84
2022/03/02 10:23:07;;;;;;;31.55;15.60;;;8.70;49.10;;;;;;5102802;28;20183;-85
2022/03/02 10:26:04;;;;;;;34.78;15.82;;;8.80;48.70;;;;;;5103615;28;20189;-84
2022/03/02 10:29:00;;;;;;;30.02;14.60;;;8.60;48.50;;;;;;5099593;28;20175;-85
2022/03/02 10:31:40;;;;;;;26.65;14.20;;;8.60;48.50;;;;;;5078069;28;20195;-85
2022/03/02 10:34:32;;;;;;;29.15;14.02;;;8.90;47.80;;;;;;5059842;28;20574;-84
2022/03/02 10:37:28;;;;;;;26.67;14.95;;;9.00;47.10;;;;;;5075904;28;20228;-84
2022/03/02 10:40:13;;;;;;;22.80;13.13;;;9.30;46.70;;;;;;5075599;28;20180;-85
2022/03/02 10:43:09;;;;;;;19.70;11.75;;;9.40;44.30;;;;;;5095524;28;20172;-84
2022/03/02 10:45:42;;;;;;;23.73;11.82;;;9.30;42.90;;;;;;5094853;28;20622;-84
2022/03/02 10:48:32;;;;;;;21.10;11.02;;;9.40;41.90;;;;;;5094605;28;20643;-84
2022/03/02 10:50:59;;;;;;;19.35;12.20;;;9.60;41.60;;;;;;5096213;28;20655;-86
2022/03/02 10:53:30;;;;;;;19.50;12.75;;;9.40;39.60;;;;;;5098699;28;20801;-85
2022/03/02 10:55:57;;;;;;;21.08;12.82;;;9.30;39.90;;;;;;5096961;28;20312;-85
2022/03/02 10:58:28;;;;;;;17.00;11.32;;;9.40;39.40;;;;;;5099741;28;20184;-84
2022/03/02 11:00:55;;;;;;;21.10;11.82;;;9.50;38.90;;;;;;5081543;28;20188;-84
2022/03/02 11:03:21;;;;;;;24.83;11.27;;;9.70;38.50;;;;;;5099386;28;20187;-88
2022/03/02 11:05:47;;;;;;;24.58;11.13;;;9.80;37.80;;;;;;5099328;28;20211;-85
2022/03/02 11:08:16;;;;;;;20.93;9.70;;;9.90;37.50;;;;;;5099222;28;20635;-84
2022/03/02 11:10:43;;;;;;;21.42;10.43;;;10.00;36.90;;;;;;5102324;28;20426;-85
2022/03/02 11:13:15;;;;;;;19.45;10.35;;;10.10;37.60;;;;;;5101100;28;20184;-85
2022/03/02 11:15:51;;;;;;;15.07;9.90;;;10.20;36.40;;;;;;5102358;28;20206;-84
2022/03/02 11:18:19;;;;;;;18.77;9.80;;;10.50;36.70;;;;;;5101151;28;20214;-86
2022/03/02 11:21:01;;;;;;;18.10;8.27;;;10.30;35.20;;;;;;5102863;28;20223;-85
2022/03/02 11:23:33;;;;;;;14.82;10.10;;;10.30;34.90;;;;;;5102431;28;20243;-85
2022/03/02 11:26:07;;;;;;;17.10;10.18;;;10.30;34.60;;;;;;5094414;28;20184;-88
2022/03/02 11:28:34;;;;;;;15.57;9.50;;;10.30;34.60;;;;;;5101359;28;20197;-85
2022/03/02 11:31:08;;;;;;;17.58;9.80;;;;;;;;;;5099605;28;20191;-86
2022/03/02 11:33:35;;;;;;;14.13;8.77;;;10.80;33.90;;;;;;5102102;28;20345;-85
2022/03/02 11:36:19;;;;;;;16.92;9.13;;;11.00;34.20;;;;;;5100824;28;20231;-85
2022/03/02 11:38:51;;;;;;;16.80;9.30;;;10.90;33.80;;;;;;5096580;28;20187;-85
2022/03/02 11:41:33;;;;;;;17.42;9.15;;;11.00;33.50;;;;;;5096926;28;20176;-84
2022/03/02 11:43:59;;;;;;;14.88;8.90;;;11.00;32.50;;;;;;5093866;28;20938;-84
2022/03/02 11:46:24;;;;;;;17.13;8.50;;;11.00;32.40;;;;;;5099226;28;20188;-84
2022/03/02 11:48:51;;;;;;;13.83;9.20;;;11.10;33.00;;;;;;5101283;28;20183;-85
2022/03/02 11:51:27;;;;;;;15.38;9.05;;;11.30;32.80;;;;;;5100472;28;20213;-84
2022/03/02 11:54:01;;;;;;;13.25;9.15;;;11.50;32.10;;;;;;5097778;28;20202;-83
2022/03/02 11:56:28;;;;;;;13.98;9.43;;;10.60;32.50;;;;;;5090902;28;20195;-85
2022/03/02 11:59:05;;;;;;;23.13;9.00;;;11.80;30.50;;;;;;5095917;28;20278;-84
2022/03/02 12:01:51;;;;;;;17.27;9.30;;;11.80;30.00;;;;;;5096467;28;20234;-84
2022/03/02 12:04:17;;;;;;;15.00;8.88;;;11.80;30.00;;;;;;5099544;28;20198;-85
2022/03/02 12:06:47;;;;;;;20.20;9.00;;;11.80;30.00;;;;;;5098784;28;20190;-84
2022/03/02 12:09:33;;;;;;;18.20;9.68;;;11.80;30.00;;;;;;5099031;28;20187;-83
2022/03/02 12:12:16;;;;;;;17.33;9.30;;;11.70;30.00;;;;;;5100019;28;20176;-83
2022/03/02 12:14:53;;;;;;;12.90;8.98;;;11.70;30.00;;;;;;5090844;28;20226;-83
2022/03/02 12:17:25;;;;;;;15.15;10.55;;;11.90;30.80;;;;;;5103262;28;20206;-84
2022/03/02 12:19:58;;;;;;;16.33;9.60;;;12.20;31.60;;;;;;5102680;28;20188;-87
2022/03/02 12:22:43;;;;;;;13.38;8.02;;;12.50;32.20;;;;;;5101114;28;20176;-83
2022/03/02 12:25:12;;;;;;;16.67;9.13;;;12.70;31.20;;;;;;5098670;28;20195;-83
2022/03/02 12:27:39;;;;;;;17.60;10.32;;;12.50;30.00;;;;;;5101579;28;20168;-86
2022/03/02 12:30:08;;;;;;;14.90;9.02;;;12.60;30.00;;;;;;5098847;28;20263;-86
2022/03/02 12:32:36;;;;;;;18.63;10.18;;;12.80;30.20;;;;;;5097343;28;20176;-85
2022/03/02 12:35:06;;;;;;;18.98;10.32;;;12.60;30.00;;;;;;5096820;28;20286;-87
2022/03/02 12:37:33;;;;;;;17.80;10.10;;;12.30;30.00;;;;;;5096929;28;20267;-87
2022/03/02 12:40:00;;;;;;;12.73;9.40;;;12.60;30.00;;;;;;5093158;28;20183;-86
2022/03/02 12:42:26;;;;;;;15.15;9.63;;;12.70;30.00;;;;;;5096324;28;20669;-86
2022/03/02 12:44:56;;;;;;;13.27;9.40;;;12.60;30.00;;;;;;5097866;28;20199;-87
2022/03/02 12:47:25;;;;;;;13.65;9.57;;;12.80;30.00;;;;;;5096551;28;20263;-86